sensor_id;sensor_type;location;lat;lon;timestamp;temperature;humidity
48836;DHT22;62581;47.342;7.908;2022-10-16T00:01:47;14.90;99.90
48836;DHT22;62581;47.342;7.908;2022-10-16T00:04:13;14.90;99.90
48836;DHT22;62581;47.342;7.908;2022-10-16T00:06:40;14.90;99.90
48836;DHT22;62581;47.342;7.908;2022-10-16T00:09:07;14.90;99.90
48836;DHT22;62581;47.342;7.908;2022-10-16T00:11:35;14.90;99.90
48836;DHT22;62581;47.342;7.908;2022-10-16T00:14:03;15.00;99.90
48836;DHT22;62581;47.342;7.908;2022-10-16T00:16:30;15.00;99.90
48836;DHT22;62581;47.342;7.908;2022-10-16T00:18:59;15.00;99.90
48836;DHT22;62581;47.342;7.908;2022-10-16T00:21:26;14.90;99.90
48836;DHT22;62581;47.342;7.908;2022-10-16T00:23:54;14.90;99.90
48836;DHT22;62581;47.342;7.908;2022-10-16T00:26:21;14.90;99.90
48836;DHT22;62581;47.342;7.908;2022-10-16T00:28:49;14.80;99.90
48836;DHT22;62581;47.342;7.908;2022-10-16T00:31:16;14.80;99.90
48836;DHT22;62581;47.342;7.908;2022-10-16T00:33:43;14.80;99.90
48836;DHT22;62581;47.342;7.908;2022-10-16T00:36:12;14.80;99.90
48836;DHT22;62581;47.342;7.908;2022-10-16T00:38:39;14.80;99.90
48836;DHT22;62581;47.342;7.908;2022-10-16T00:41:07;14.80;99.90
48836;DHT22;62581;47.342;7.908;2022-10-16T00:43:39;14.80;99.90
48836;DHT22;62581;47.342;7.908;2022-10-16T00:46:09;14.80;99.90
48836;DHT22;62581;47.342;7.908;2022-10-16T00:48:37;14.80;99.90
48836;DHT22;62581;47.342;7.908;2022-10-16T00:51:04;14.80;99.90
48836;DHT22;62581;47.342;7.908;2022-10-16T00:53:33;14.80;99.90
48836;DHT22;62581;47.342;7.908;2022-10-16T00:56:00;14.80;99.90
48836;DHT22;62581;47.342;7.908;2022-10-16T00:58:27;14.80;99.90
48836;DHT22;62581;47.342;7.908;2022-10-16T01:00:54;14.70;99.90
48836;DHT22;62581;47.342;7.908;2022-10-16T01:03:26;14.70;99.90
48836;DHT22;62581;47.342;7.908;2022-10-16T01:05:55;14.70;99.90
48836;DHT22;62581;47.342;7.908;2022-10-16T01:08:26;14.70;99.90
48836;DHT22;62581;47.342;7.908;2022-10-16T01:10:58;14.70;99.90
48836;DHT22;62581;47.342;7.908;2022-10-16T01:13:27;14.70;99.90
48836;DHT22;62581;47.342;7.908;2022-10-16T01:15:54;14.70;99.90
48836;DHT22;62581;47.342;7.908;2022-10-16T01:18:24;14.70;99.90
48836;DHT22;62581;47.342;7.908;2022-10-16T01:20:53;14.60;99.90
48836;DHT22;62581;47.342;7.908;2022-10-16T01:23:27;14.70;99.90
48836;DHT22;62581;47.342;7.908;2022-10-16T01:26:10;14.70;99.90
48836;DHT22;62581;47.342;7.908;2022-10-16T01:28:43;14.60;99.90
48836;DHT22;62581;47.342;7.908;2022-10-16T01:31:12;14.70;99.90
48836;DHT22;62581;47.342;7.908;2022-10-16T01:33:42;14.70;99.90
48836;DHT22;62581;47.342;7.908;2022-10-16T01:36:10;14.70;99.90
48836;DHT22;62581;47.342;7.908;2022-10-16T01:38:38;14.70;99.90
48836;DHT22;62581;47.342;7.908;2022-10-16T01:41:07;14.60;99.90
48836;DHT22;62581;47.342;7.908;2022-10-16T01:43:35;14.60;99.90
48836;DHT22;62581;47.342;7.908;2022-10-16T01:46:04;14.50;99.90
48836;DHT22;62581;47.342;7.908;2022-10-16T01:48:31;14.50;99.90
48836;DHT22;62581;47.342;7.908;2022-10-16T01:51:00;14.50;99.90
48836;DHT22;62581;47.342;7.908;2022-10-16T01:53:27;14.50;99.90
48836;DHT22;62581;47.342;7.908;2022-10-16T01:55:55;14.50;99.90
48836;DHT22;62581;47.342;7.908;2022-10-16T01:58:22;14.50;99.90
48836;DHT22;62581;47.342;7.908;2022-10-16T02:00:50;14.40;99.90
48836;DHT22;62581;47.342;7.908;2022-10-16T02:03:19;14.40;99.90
48836;DHT22;62581;47.342;7.908;2022-10-16T02:05:47;14.50;99.90
48836;DHT22;62581;47.342;7.908;2022-10-16T02:08:17;14.50;99.90
48836;DHT22;62581;47.342;7.908;2022-10-16T02:10:43;14.40;99.90
48836;DHT22;62581;47.342;7.908;2022-10-16T02:13:11;14.50;99.90
48836;DHT22;62581;47.342;7.908;2022-10-16T02:15:39;14.40;99.90
48836;DHT22;62581;47.342;7.908;2022-10-16T02:18:06;14.40;99.90
48836;DHT22;62581;47.342;7.908;2022-10-16T02:20:36;14.40;99.90
48836;DHT22;62581;47.342;7.908;2022-10-16T02:23:05;14.40;99.90
48836;DHT22;62581;47.342;7.908;2022-10-16T02:25:35;14.30;99.90
48836;DHT22;62581;47.342;7.908;2022-10-16T02:28:06;14.30;99.90
48836;DHT22;62581;47.342;7.908;2022-10-16T02:30:33;14.30;99.90
48836;DHT22;62581;47.342;7.908;2022-10-16T02:33:02;14.40;99.90
48836;DHT22;62581;47.342;7.908;2022-10-16T02:35:30;14.40;99.90
48836;DHT22;62581;47.342;7.908;2022-10-16T02:37:59;14.30;99.90
48836;DHT22;62581;47.342;7.908;2022-10-16T02:40:26;14.30;99.90
48836;DHT22;62581;47.342;7.908;2022-10-16T02:42:53;14.30;99.90
48836;DHT22;62581;47.342;7.908;2022-10-16T02:45:20;14.30;99.90
48836;DHT22;62581;47.342;7.908;2022-10-16T02:47:48;14.20;99.90
48836;DHT22;62581;47.342;7.908;2022-10-16T02:50:15;14.20;99.90
48836;DHT22;62581;47.342;7.908;2022-10-16T02:52:42;14.30;99.90
48836;DHT22;62581;47.342;7.908;2022-10-16T02:55:10;14.20;99.90
48836;DHT22;62581;47.342;7.908;2022-10-16T02:57:36;14.20;99.90
48836;DHT22;62581;47.342;7.908;2022-10-16T03:00:05;14.20;99.90
48836;DHT22;62581;47.342;7.908;2022-10-16T03:02:32;14.30;99.90
48836;DHT22;62581;47.342;7.908;2022-10-16T03:04:59;14.30;99.90
48836;DHT22;62581;47.342;7.908;2022-10-16T03:07:26;14.30;99.90
48836;DHT22;62581;47.342;7.908;2022-10-16T03:09:52;14.30;99.90
48836;DHT22;62581;47.342;7.908;2022-10-16T03:12:21;14.30;99.90
48836;DHT22;62581;47.342;7.908;2022-10-16T03:14:48;14.30;99.90
48836;DHT22;62581;47.342;7.908;2022-10-16T03:17:14;14.30;99.90
48836;DHT22;62581;47.342;7.908;2022-10-16T03:19:42;14.30;99.90
48836;DHT22;62581;47.342;7.908;2022-10-16T03:22:08;14.30;99.90
48836;DHT22;62581;47.342;7.908;2022-10-16T03:24:35;14.20;99.90
48836;DHT22;62581;47.342;7.908;2022-10-16T03:27:02;14.20;99.90
48836;DHT22;62581;47.342;7.908;2022-10-16T03:29:30;14.20;99.90
48836;DHT22;62581;47.342;7.908;2022-10-16T03:31:58;14.20;99.90
48836;DHT22;62581;47.342;7.908;2022-10-16T03:34:25;14.10;99.90
48836;DHT22;62581;47.342;7.908;2022-10-16T03:36:51;14.20;99.90
48836;DHT22;62581;47.342;7.908;2022-10-16T03:39:18;14.20;99.90
48836;DHT22;62581;47.342;7.908;2022-10-16T03:41:45;14.20;99.90
48836;DHT22;62581;47.342;7.908;2022-10-16T03:44:12;14.20;99.90
48836;DHT22;62581;47.342;7.908;2022-10-16T03:46:40;14.20;99.90
48836;DHT22;62581;47.342;7.908;2022-10-16T03:49:07;14.20;99.90
48836;DHT22;62581;47.342;7.908;2022-10-16T03:51:34;14.20;99.90
48836;DHT22;62581;47.342;7.908;2022-10-16T03:54:01;14.20;99.90
48836;DHT22;62581;47.342;7.908;2022-10-16T03:56:28;14.20;99.90
48836;DHT22;62581;47.342;7.908;2022-10-16T03:58:54;14.10;99.90
48836;DHT22;62581;47.342;7.908;2022-10-16T04:01:21;14.10;99.90
48836;DHT22;62581;47.342;7.908;2022-10-16T04:03:49;14.10;99.90
48836;DHT22;62581;47.342;7.908;2022-10-16T04:06:16;14.10;99.90
48836;DHT22;62581;47.342;7.908;2022-10-16T04:08:43;14.10;99.90
48836;DHT22;62581;47.342;7.908;2022-10-16T04:11:10;14.10;99.90
48836;DHT22;62581;47.342;7.908;2022-10-16T04:13:36;14.10;99.90
48836;DHT22;62581;47.342;7.908;2022-10-16T04:16:03;14.10;99.90
48836;DHT22;62581;47.342;7.908;2022-10-16T04:18:30;14.10;99.90
48836;DHT22;62581;47.342;7.908;2022-10-16T04:21:02;14.10;99.90
48836;DHT22;62581;47.342;7.908;2022-10-16T04:23:29;14.10;99.90
48836;DHT22;62581;47.342;7.908;2022-10-16T04:25:55;14.10;99.90
48836;DHT22;62581;47.342;7.908;2022-10-16T04:28:22;14.10;99.90
48836;DHT22;62581;47.342;7.908;2022-10-16T04:30:49;14.10;99.90
48836;DHT22;62581;47.342;7.908;2022-10-16T04:33:16;14.10;99.90
48836;DHT22;62581;47.342;7.908;2022-10-16T04:35:43;14.10;99.90
48836;DHT22;62581;47.342;7.908;2022-10-16T04:38:11;14.10;99.90
48836;DHT22;62581;47.342;7.908;2022-10-16T04:40:37;14.10;99.90
48836;DHT22;62581;47.342;7.908;2022-10-16T04:43:04;14.10;99.90
48836;DHT22;62581;47.342;7.908;2022-10-16T04:45:32;14.10;99.90
48836;DHT22;62581;47.342;7.908;2022-10-16T04:47:59;14.10;99.90
48836;DHT22;62581;47.342;7.908;2022-10-16T04:50:26;14.10;99.90
48836;DHT22;62581;47.342;7.908;2022-10-16T04:52:53;14.10;99.90
48836;DHT22;62581;47.342;7.908;2022-10-16T04:55:21;14.10;99.90
48836;DHT22;62581;47.342;7.908;2022-10-16T04:57:48;14.10;99.90
48836;DHT22;62581;47.342;7.908;2022-10-16T05:00:15;14.10;99.90
48836;DHT22;62581;47.342;7.908;2022-10-16T05:02:41;14.10;99.90
48836;DHT22;62581;47.342;7.908;2022-10-16T05:05:08;14.10;99.90
48836;DHT22;62581;47.342;7.908;2022-10-16T05:07:35;14.10;99.90
48836;DHT22;62581;47.342;7.908;2022-10-16T05:10:02;14.10;99.90
48836;DHT22;62581;47.342;7.908;2022-10-16T05:12:30;14.10;99.90
48836;DHT22;62581;47.342;7.908;2022-10-16T05:14:57;14.10;99.90
48836;DHT22;62581;47.342;7.908;2022-10-16T05:17:24;14.10;99.90
48836;DHT22;62581;47.342;7.908;2022-10-16T05:19:51;14.10;99.90
48836;DHT22;62581;47.342;7.908;2022-10-16T05:22:17;14.10;99.90
48836;DHT22;62581;47.342;7.908;2022-10-16T05:24:44;14.10;99.90
48836;DHT22;62581;47.342;7.908;2022-10-16T05:27:11;14.10;99.90
48836;DHT22;62581;47.342;7.908;2022-10-16T05:29:45;14.10;99.90
48836;DHT22;62581;47.342;7.908;2022-10-16T05:32:13;14.10;99.90
48836;DHT22;62581;47.342;7.908;2022-10-16T05:34:39;14.10;99.90
48836;DHT22;62581;47.342;7.908;2022-10-16T05:37:06;14.10;99.90
48836;DHT22;62581;47.342;7.908;2022-10-16T05:39:33;14.10;99.90
48836;DHT22;62581;47.342;7.908;2022-10-16T05:42:00;14.00;99.90
48836;DHT22;62581;47.342;7.908;2022-10-16T05:44:26;14.10;99.90
48836;DHT22;62581;47.342;7.908;2022-10-16T05:46:55;14.10;99.90
48836;DHT22;62581;47.342;7.908;2022-10-16T05:49:21;14.10;99.90
48836;DHT22;62581;47.342;7.908;2022-10-16T05:51:48;14.10;99.90
48836;DHT22;62581;47.342;7.908;2022-10-16T05:54:15;14.10;99.90
48836;DHT22;62581;47.342;7.908;2022-10-16T05:56:42;14.10;99.90
48836;DHT22;62581;47.342;7.908;2022-10-16T05:59:09;14.10;99.90
48836;DHT22;62581;47.342;7.908;2022-10-16T06:01:35;14.10;99.90
48836;DHT22;62581;47.342;7.908;2022-10-16T06:04:03;14.10;99.90
48836;DHT22;62581;47.342;7.908;2022-10-16T06:06:30;14.10;99.90
48836;DHT22;62581;47.342;7.908;2022-10-16T06:08:57;14.10;99.90
48836;DHT22;62581;47.342;7.908;2022-10-16T06:11:26;14.10;99.90
48836;DHT22;62581;47.342;7.908;2022-10-16T06:13:53;14.00;99.90
48836;DHT22;62581;47.342;7.908;2022-10-16T06:16:21;14.00;99.90
48836;DHT22;62581;47.342;7.908;2022-10-16T06:18:50;14.00;99.90
48836;DHT22;62581;47.342;7.908;2022-10-16T06:21:19;14.10;99.90
48836;DHT22;62581;47.342;7.908;2022-10-16T06:23:46;14.10;99.90
48836;DHT22;62581;47.342;7.908;2022-10-16T06:26:14;14.10;99.90
48836;DHT22;62581;47.342;7.908;2022-10-16T06:28:41;14.10;99.90
48836;DHT22;62581;47.342;7.908;2022-10-16T06:31:09;14.10;99.90
48836;DHT22;62581;47.342;7.908;2022-10-16T06:33:36;14.10;99.90
48836;DHT22;62581;47.342;7.908;2022-10-16T06:36:04;14.10;99.90
48836;DHT22;62581;47.342;7.908;2022-10-16T06:38:32;14.10;99.90
48836;DHT22;62581;47.342;7.908;2022-10-16T06:41:00;14.10;99.90
48836;DHT22;62581;47.342;7.908;2022-10-16T06:43:28;14.10;99.90
48836;DHT22;62581;47.342;7.908;2022-10-16T06:45:57;14.10;99.90
48836;DHT22;62581;47.342;7.908;2022-10-16T06:48:25;14.10;99.90
48836;DHT22;62581;47.342;7.908;2022-10-16T06:50:55;14.10;99.90
48836;DHT22;62581;47.342;7.908;2022-10-16T06:53:22;14.10;99.90
48836;DHT22;62581;47.342;7.908;2022-10-16T06:55:50;14.10;99.90
48836;DHT22;62581;47.342;7.908;2022-10-16T06:58:17;14.10;99.90
48836;DHT22;62581;47.342;7.908;2022-10-16T07:00:44;14.10;99.90
48836;DHT22;62581;47.342;7.908;2022-10-16T07:03:10;14.10;99.90
48836;DHT22;62581;47.342;7.908;2022-10-16T07:05:37;14.10;99.90
48836;DHT22;62581;47.342;7.908;2022-10-16T07:08:04;14.10;99.90
48836;DHT22;62581;47.342;7.908;2022-10-16T07:10:31;14.20;99.90
48836;DHT22;62581;47.342;7.908;2022-10-16T07:12:59;14.20;99.90
48836;DHT22;62581;47.342;7.908;2022-10-16T07:15:26;14.20;99.90
48836;DHT22;62581;47.342;7.908;2022-10-16T07:17:53;14.20;99.90
48836;DHT22;62581;47.342;7.908;2022-10-16T07:20:20;14.20;99.90
48836;DHT22;62581;47.342;7.908;2022-10-16T07:22:46;14.10;99.90
48836;DHT22;62581;47.342;7.908;2022-10-16T07:25:13;14.10;99.90
48836;DHT22;62581;47.342;7.908;2022-10-16T07:27:40;14.20;99.90
48836;DHT22;62581;47.342;7.908;2022-10-16T07:30:08;14.20;99.90
48836;DHT22;62581;47.342;7.908;2022-10-16T07:32:35;14.20;99.90
48836;DHT22;62581;47.342;7.908;2022-10-16T07:35:02;14.20;99.90
48836;DHT22;62581;47.342;7.908;2022-10-16T07:37:29;14.30;99.90
48836;DHT22;62581;47.342;7.908;2022-10-16T07:39:56;14.30;99.90
48836;DHT22;62581;47.342;7.908;2022-10-16T07:42:22;14.30;99.90
48836;DHT22;62581;47.342;7.908;2022-10-16T07:44:49;14.40;99.90
48836;DHT22;62581;47.342;7.908;2022-10-16T07:47:17;14.50;99.90
48836;DHT22;62581;47.342;7.908;2022-10-16T07:49:44;14.60;99.90
48836;DHT22;62581;47.342;7.908;2022-10-16T07:52:11;14.60;99.90
48836;DHT22;62581;47.342;7.908;2022-10-16T07:54:38;14.70;99.90
48836;DHT22;62581;47.342;7.908;2022-10-16T07:57:04;14.70;99.90
48836;DHT22;62581;47.342;7.908;2022-10-16T07:59:31;14.70;99.90
48836;DHT22;62581;47.342;7.908;2022-10-16T08:01:58;14.80;99.90
48836;DHT22;62581;47.342;7.908;2022-10-16T08:04:26;14.90;99.90
48836;DHT22;62581;47.342;7.908;2022-10-16T08:06:53;14.90;99.90
48836;DHT22;62581;47.342;7.908;2022-10-16T08:09:20;15.00;99.90
48836;DHT22;62581;47.342;7.908;2022-10-16T08:11:47;15.10;99.90
48836;DHT22;62581;47.342;7.908;2022-10-16T08:14:14;15.10;99.90
48836;DHT22;62581;47.342;7.908;2022-10-16T08:16:41;15.20;99.90
48836;DHT22;62581;47.342;7.908;2022-10-16T08:19:07;15.30;99.90
48836;DHT22;62581;47.342;7.908;2022-10-16T08:21:36;15.40;99.90
48836;DHT22;62581;47.342;7.908;2022-10-16T08:24:02;15.40;99.90
48836;DHT22;62581;47.342;7.908;2022-10-16T08:26:29;15.50;99.90
48836;DHT22;62581;47.342;7.908;2022-10-16T08:28:56;15.60;99.90
48836;DHT22;62581;47.342;7.908;2022-10-16T08:31:23;15.70;99.90
48836;DHT22;62581;47.342;7.908;2022-10-16T08:33:49;15.80;99.90
48836;DHT22;62581;47.342;7.908;2022-10-16T08:36:17;15.90;99.90
48836;DHT22;62581;47.342;7.908;2022-10-16T08:38:48;15.90;99.90
48836;DHT22;62581;47.342;7.908;2022-10-16T08:41:32;16.00;99.90
48836;DHT22;62581;47.342;7.908;2022-10-16T08:44:07;16.00;99.90
48836;DHT22;62581;47.342;7.908;2022-10-16T08:46:41;16.10;99.90
48836;DHT22;62581;47.342;7.908;2022-10-16T08:49:10;16.20;99.90
48836;DHT22;62581;47.342;7.908;2022-10-16T08:51:38;16.30;99.90
48836;DHT22;62581;47.342;7.908;2022-10-16T08:54:06;16.40;99.90
48836;DHT22;62581;47.342;7.908;2022-10-16T08:56:37;16.50;99.90
48836;DHT22;62581;47.342;7.908;2022-10-16T08:59:04;16.70;99.90
48836;DHT22;62581;47.342;7.908;2022-10-16T09:01:35;16.80;99.90
48836;DHT22;62581;47.342;7.908;2022-10-16T09:04:07;16.90;99.90
48836;DHT22;62581;47.342;7.908;2022-10-16T09:06:43;17.00;99.90
48836;DHT22;62581;47.342;7.908;2022-10-16T09:09:20;17.10;99.90
48836;DHT22;62581;47.342;7.908;2022-10-16T09:11:51;17.10;99.90
48836;DHT22;62581;47.342;7.908;2022-10-16T09:14:32;17.30;99.90
48836;DHT22;62581;47.342;7.908;2022-10-16T09:17:04;17.50;99.90
48836;DHT22;62581;47.342;7.908;2022-10-16T09:19:36;17.70;99.90
48836;DHT22;62581;47.342;7.908;2022-10-16T09:22:09;18.00;99.90
48836;DHT22;62581;47.342;7.908;2022-10-16T09:24:38;18.20;99.90
48836;DHT22;62581;47.342;7.908;2022-10-16T09:27:06;18.30;99.90
48836;DHT22;62581;47.342;7.908;2022-10-16T09:29:33;18.30;99.90
48836;DHT22;62581;47.342;7.908;2022-10-16T09:32:06;18.40;99.90
48836;DHT22;62581;47.342;7.908;2022-10-16T09:34:35;18.40;99.90
48836;DHT22;62581;47.342;7.908;2022-10-16T09:37:04;18.40;99.90
48836;DHT22;62581;47.342;7.908;2022-10-16T09:39:43;18.50;99.90
48836;DHT22;62581;47.342;7.908;2022-10-16T09:42:10;18.50;99.90
48836;DHT22;62581;47.342;7.908;2022-10-16T09:44:38;18.50;99.90
48836;DHT22;62581;47.342;7.908;2022-10-16T09:47:05;18.50;99.90
48836;DHT22;62581;47.342;7.908;2022-10-16T09:49:38;18.60;99.90
48836;DHT22;62581;47.342;7.908;2022-10-16T09:52:05;18.60;99.90
48836;DHT22;62581;47.342;7.908;2022-10-16T09:54:32;18.70;99.90
48836;DHT22;62581;47.342;7.908;2022-10-16T09:57:07;18.60;99.90
48836;DHT22;62581;47.342;7.908;2022-10-16T09:59:45;18.60;99.90
48836;DHT22;62581;47.342;7.908;2022-10-16T10:02:12;18.60;99.90
48836;DHT22;62581;47.342;7.908;2022-10-16T10:04:41;18.60;99.90
48836;DHT22;62581;47.342;7.908;2022-10-16T10:07:15;18.70;99.90
48836;DHT22;62581;47.342;7.908;2022-10-16T10:09:43;18.70;99.90
48836;DHT22;62581;47.342;7.908;2022-10-16T10:12:17;18.80;99.90
48836;DHT22;62581;47.342;7.908;2022-10-16T10:14:46;18.80;99.90
48836;DHT22;62581;47.342;7.908;2022-10-16T10:17:14;18.80;99.90
48836;DHT22;62581;47.342;7.908;2022-10-16T10:19:44;18.80;99.90
48836;DHT22;62581;47.342;7.908;2022-10-16T10:22:16;18.80;99.90
48836;DHT22;62581;47.342;7.908;2022-10-16T10:24:43;18.80;99.90
48836;DHT22;62581;47.342;7.908;2022-10-16T10:27:13;18.80;99.90
48836;DHT22;62581;47.342;7.908;2022-10-16T10:29:45;18.80;99.90
48836;DHT22;62581;47.342;7.908;2022-10-16T10:32:20;18.80;99.90
48836;DHT22;62581;47.342;7.908;2022-10-16T10:35:00;18.80;99.90
48836;DHT22;62581;47.342;7.908;2022-10-16T10:37:33;18.90;99.90
48836;DHT22;62581;47.342;7.908;2022-10-16T10:40:04;18.90;99.90
48836;DHT22;62581;47.342;7.908;2022-10-16T10:42:34;19.10;99.90
48836;DHT22;62581;47.342;7.908;2022-10-16T10:45:14;19.10;99.90
48836;DHT22;62581;47.342;7.908;2022-10-16T10:47:47;19.10;99.90
48836;DHT22;62581;47.342;7.908;2022-10-16T10:50:20;19.10;99.90
48836;DHT22;62581;47.342;7.908;2022-10-16T10:52:51;19.20;99.90
48836;DHT22;62581;47.342;7.908;2022-10-16T10:55:21;19.20;99.90
48836;DHT22;62581;47.342;7.908;2022-10-16T10:57:57;19.20;99.90
48836;DHT22;62581;47.342;7.908;2022-10-16T11:00:30;19.20;99.90
48836;DHT22;62581;47.342;7.908;2022-10-16T11:03:04;19.30;99.90
48836;DHT22;62581;47.342;7.908;2022-10-16T11:05:42;19.50;99.90
48836;DHT22;62581;47.342;7.908;2022-10-16T11:08:11;19.60;99.90
48836;DHT22;62581;47.342;7.908;2022-10-16T11:10:42;19.70;99.90
48836;DHT22;62581;47.342;7.908;2022-10-16T11:13:14;19.80;99.90
48836;DHT22;62581;47.342;7.908;2022-10-16T11:15:43;19.80;99.90
48836;DHT22;62581;47.342;7.908;2022-10-16T11:18:12;19.90;99.90
48836;DHT22;62581;47.342;7.908;2022-10-16T11:20:42;20.00;99.90
48836;DHT22;62581;47.342;7.908;2022-10-16T11:23:14;20.10;99.90
48836;DHT22;62581;47.342;7.908;2022-10-16T11:25:43;20.20;99.90
48836;DHT22;62581;47.342;7.908;2022-10-16T11:28:17;20.50;99.90
48836;DHT22;62581;47.342;7.908;2022-10-16T11:30:52;20.70;99.90
48836;DHT22;62581;47.342;7.908;2022-10-16T11:33:22;21.00;99.90
48836;DHT22;62581;47.342;7.908;2022-10-16T11:39:16;21.50;99.90
48836;DHT22;62581;47.342;7.908;2022-10-16T11:41:42;21.80;99.90
48836;DHT22;62581;47.342;7.908;2022-10-16T11:44:15;22.20;99.90
48836;DHT22;62581;47.342;7.908;2022-10-16T11:46:48;22.50;99.90
48836;DHT22;62581;47.342;7.908;2022-10-16T11:49:18;22.70;99.90
48836;DHT22;62581;47.342;7.908;2022-10-16T11:51:56;22.90;99.90
48836;DHT22;62581;47.342;7.908;2022-10-16T11:54:28;23.00;99.90
48836;DHT22;62581;47.342;7.908;2022-10-16T11:56:58;23.20;99.90
48836;DHT22;62581;47.342;7.908;2022-10-16T11:59:27;23.50;99.90
48836;DHT22;62581;47.342;7.908;2022-10-16T12:01:59;23.70;99.90
48836;DHT22;62581;47.342;7.908;2022-10-16T12:04:30;23.80;99.90
48836;DHT22;62581;47.342;7.908;2022-10-16T12:06:59;23.80;99.90
48836;DHT22;62581;47.342;7.908;2022-10-16T12:09:29;24.10;99.90
48836;DHT22;62581;47.342;7.908;2022-10-16T12:11:57;24.50;99.90
48836;DHT22;62581;47.342;7.908;2022-10-16T12:14:38;24.80;99.90
48836;DHT22;62581;47.342;7.908;2022-10-16T12:17:25;24.90;99.90
48836;DHT22;62581;47.342;7.908;2022-10-16T12:20:00;25.10;99.90
48836;DHT22;62581;47.342;7.908;2022-10-16T12:22:31;25.50;99.90
48836;DHT22;62581;47.342;7.908;2022-10-16T12:25:18;25.40;99.90
48836;DHT22;62581;47.342;7.908;2022-10-16T12:31:08;25.60;99.90
48836;DHT22;62581;47.342;7.908;2022-10-16T12:33:39;25.80;99.90
48836;DHT22;62581;47.342;7.908;2022-10-16T12:36:08;25.70;99.90
48836;DHT22;62581;47.342;7.908;2022-10-16T12:42:02;25.40;99.90
48836;DHT22;62581;47.342;7.908;2022-10-16T12:44:43;25.00;99.90
48836;DHT22;62581;47.342;7.908;2022-10-16T12:47:36;25.30;99.90
48836;DHT22;62581;47.342;7.908;2022-10-16T12:53:18;26.30;99.90
48836;DHT22;62581;47.342;7.908;2022-10-16T12:55:50;26.80;99.90
48836;DHT22;62581;47.342;7.908;2022-10-16T12:58:41;27.00;99.90
48836;DHT22;62581;47.342;7.908;2022-10-16T13:01:17;27.30;99.90
48836;DHT22;62581;47.342;7.908;2022-10-16T13:03:49;27.50;99.90
48836;DHT22;62581;47.342;7.908;2022-10-16T13:06:28;28.00;99.90
48836;DHT22;62581;47.342;7.908;2022-10-16T13:09:10;28.10;99.70
48836;DHT22;62581;47.342;7.908;2022-10-16T13:11:43;28.30;99.40
48836;DHT22;62581;47.342;7.908;2022-10-16T13:14:24;28.40;98.70
48836;DHT22;62581;47.342;7.908;2022-10-16T13:16:58;28.50;98.90
48836;DHT22;62581;47.342;7.908;2022-10-16T13:19:43;28.70;97.90
48836;DHT22;62581;47.342;7.908;2022-10-16T13:22:13;29.10;97.40
48836;DHT22;62581;47.342;7.908;2022-10-16T13:24:48;29.40;95.60
48836;DHT22;62581;47.342;7.908;2022-10-16T13:27:21;29.20;95.90
48836;DHT22;62581;47.342;7.908;2022-10-16T13:29:52;29.40;95.50
48836;DHT22;62581;47.342;7.908;2022-10-16T13:32:20;29.30;95.30
48836;DHT22;62581;47.342;7.908;2022-10-16T13:34:48;29.30;94.80
48836;DHT22;62581;47.342;7.908;2022-10-16T13:37:18;29.20;94.30
48836;DHT22;62581;47.342;7.908;2022-10-16T13:39:45;28.80;94.60
48836;DHT22;62581;47.342;7.908;2022-10-16T13:42:14;28.70;93.90
48836;DHT22;62581;47.342;7.908;2022-10-16T13:44:42;28.80;94.60
48836;DHT22;62581;47.342;7.908;2022-10-16T13:47:14;28.50;94.00
48836;DHT22;62581;47.342;7.908;2022-10-16T13:49:42;28.60;94.80
48836;DHT22;62581;47.342;7.908;2022-10-16T13:52:15;28.80;93.60
48836;DHT22;62581;47.342;7.908;2022-10-16T13:54:43;29.20;93.80
48836;DHT22;62581;47.342;7.908;2022-10-16T13:57:11;29.40;93.10
48836;DHT22;62581;47.342;7.908;2022-10-16T13:59:40;30.00;92.90
48836;DHT22;62581;47.342;7.908;2022-10-16T14:02:10;30.10;92.30
48836;DHT22;62581;47.342;7.908;2022-10-16T14:04:40;30.20;92.60
48836;DHT22;62581;47.342;7.908;2022-10-16T14:07:11;30.00;91.80
48836;DHT22;62581;47.342;7.908;2022-10-16T14:09:39;29.70;91.50
48836;DHT22;62581;47.342;7.908;2022-10-16T14:12:08;29.60;91.50
48836;DHT22;62581;47.342;7.908;2022-10-16T14:14:41;29.90;92.00
48836;DHT22;62581;47.342;7.908;2022-10-16T14:17:14;30.30;91.40
48836;DHT22;62581;47.342;7.908;2022-10-16T14:19:45;29.80;91.70
48836;DHT22;62581;47.342;7.908;2022-10-16T14:22:21;29.50;92.10
48836;DHT22;62581;47.342;7.908;2022-10-16T14:24:49;29.60;92.50
48836;DHT22;62581;47.342;7.908;2022-10-16T14:27:24;29.70;92.00
48836;DHT22;62581;47.342;7.908;2022-10-16T14:30:03;30.00;92.00
48836;DHT22;62581;47.342;7.908;2022-10-16T14:32:34;30.80;91.80
48836;DHT22;62581;47.342;7.908;2022-10-16T14:35:00;31.50;90.00
48836;DHT22;62581;47.342;7.908;2022-10-16T14:37:28;32.40;88.10
48836;DHT22;62581;47.342;7.908;2022-10-16T14:39:56;32.50;84.90
48836;DHT22;62581;47.342;7.908;2022-10-16T14:42:24;32.50;85.70
48836;DHT22;62581;47.342;7.908;2022-10-16T14:44:51;32.30;85.00
48836;DHT22;62581;47.342;7.908;2022-10-16T14:47:20;32.30;85.10
48836;DHT22;62581;47.342;7.908;2022-10-16T14:49:51;32.10;84.70
48836;DHT22;62581;47.342;7.908;2022-10-16T14:52:20;31.70;85.60
48836;DHT22;62581;47.342;7.908;2022-10-16T14:54:47;31.40;87.70
48836;DHT22;62581;47.342;7.908;2022-10-16T14:57:16;31.90;84.50
48836;DHT22;62581;47.342;7.908;2022-10-16T14:59:43;32.40;83.40
48836;DHT22;62581;47.342;7.908;2022-10-16T15:02:15;32.70;82.10
48836;DHT22;62581;47.342;7.908;2022-10-16T15:04:43;32.70;82.50
48836;DHT22;62581;47.342;7.908;2022-10-16T15:07:11;32.50;81.00
48836;DHT22;62581;47.342;7.908;2022-10-16T15:09:38;31.60;83.00
48836;DHT22;62581;47.342;7.908;2022-10-16T15:12:05;30.70;85.70
48836;DHT22;62581;47.342;7.908;2022-10-16T15:14:32;30.60;87.50
48836;DHT22;62581;47.342;7.908;2022-10-16T15:16:59;30.30;86.90
48836;DHT22;62581;47.342;7.908;2022-10-16T15:19:26;29.80;88.00
48836;DHT22;62581;47.342;7.908;2022-10-16T15:21:53;29.60;90.00
48836;DHT22;62581;47.342;7.908;2022-10-16T15:24:21;29.80;90.10
48836;DHT22;62581;47.342;7.908;2022-10-16T15:26:48;30.10;90.40
48836;DHT22;62581;47.342;7.908;2022-10-16T15:29:15;30.50;89.40
48836;DHT22;62581;47.342;7.908;2022-10-16T15:31:42;31.20;86.20
48836;DHT22;62581;47.342;7.908;2022-10-16T15:34:10;32.10;84.60
48836;DHT22;62581;47.342;7.908;2022-10-16T15:36:38;32.50;83.20
48836;DHT22;62581;47.342;7.908;2022-10-16T15:39:05;32.40;82.30
48836;DHT22;62581;47.342;7.908;2022-10-16T15:41:34;32.60;82.30
48836;DHT22;62581;47.342;7.908;2022-10-16T15:44:01;32.50;81.60
48836;DHT22;62581;47.342;7.908;2022-10-16T15:46:28;32.20;82.30
48836;DHT22;62581;47.342;7.908;2022-10-16T15:48:56;31.50;83.50
48836;DHT22;62581;47.342;7.908;2022-10-16T15:51:32;30.70;85.90
48836;DHT22;62581;47.342;7.908;2022-10-16T15:54:00;29.80;89.50
48836;DHT22;62581;47.342;7.908;2022-10-16T15:56:27;28.80;90.70